createdAt,value
2023-11-15T00:00:49.532Z,96549.84
2023-11-15T00:03:37.536Z,96541.34
2023-11-15T00:06:06.560Z,96537.95
2023-11-15T00:08:34.773Z,96534.90
2023-11-15T00:11:03.122Z,96531.11
2023-11-15T00:13:31.108Z,96528.98
2023-11-15T00:15:59.237Z,96532.88
2023-11-15T00:18:27.870Z,96529.94
2023-11-15T00:20:56.058Z,96524.59
2023-11-15T00:23:24.885Z,96528.79
2023-11-15T00:25:52.912Z,96526.80
2023-11-15T00:28:20.941Z,96532.02
2023-11-15T00:30:49.009Z,96525.52
2023-11-15T00:33:17.196Z,96522.89
2023-11-15T00:35:45.244Z,96521.31
2023-11-15T00:38:13.574Z,96521.33
2023-11-15T00:40:43.233Z,96525.98
2023-11-15T00:43:11.514Z,96519.31
2023-11-15T00:45:39.618Z,96516.67
2023-11-15T00:48:07.717Z,96512.19
2023-11-15T00:50:35.809Z,96513.03
2023-11-15T00:53:04.948Z,96510.64
2023-11-15T00:55:32.858Z,96510.64
2023-11-15T00:58:00.857Z,96511.52
2023-11-15T01:00:33.864Z,96507.73
2023-11-15T01:03:02.774Z,96504.42
2023-11-15T01:05:31.023Z,96505.55
2023-11-15T01:07:59.392Z,96497.55
2023-11-15T01:10:27.654Z,96491.44
2023-11-15T01:12:55.927Z,96483.55
2023-11-15T01:15:24.315Z,96471.86
2023-11-15T01:17:52.620Z,96469.83
2023-11-15T01:20:20.839Z,96460.30
2023-11-15T01:22:49.307Z,96454.52
2023-11-15T01:25:17.390Z,96450.11
2023-11-15T01:27:47.454Z,96454.35
2023-11-15T01:30:15.727Z,96461.41
2023-11-15T01:32:44.113Z,96458.41
2023-11-15T01:35:12.553Z,96454.30
2023-11-15T01:37:40.588Z,96453.70
2023-11-15T01:40:09.228Z,96452.70
2023-11-15T01:42:37.322Z,96448.92
2023-11-15T01:45:07.528Z,96446.42
2023-11-15T01:47:35.856Z,96447.74
2023-11-15T01:50:08.797Z,96448.28
2023-11-15T01:52:38.854Z,96452.87
2023-11-15T01:55:10.502Z,96447.26
2023-11-15T01:57:38.965Z,96434.52
2023-11-15T02:00:10.143Z,96426.70
2023-11-15T02:02:42.796Z,96426.38
2023-11-15T02:05:11.088Z,96431.89
2023-11-15T02:07:39.938Z,96427.88
2023-11-15T02:10:09.140Z,96422.55
2023-11-15T02:12:37.254Z,96425.27
2023-11-15T02:15:06.032Z,96420.38
2023-11-15T02:17:34.287Z,96413.70
2023-11-15T02:20:06.225Z,96413.11
2023-11-15T02:22:35.133Z,96413.96
2023-11-15T02:25:03.297Z,96407.83
2023-11-15T02:27:31.280Z,96406.80
2023-11-15T02:29:59.394Z,96402.17
2023-11-15T02:32:27.381Z,96408.59
2023-11-15T02:34:56.288Z,96412.41
2023-11-15T02:37:24.260Z,96405.36
2023-11-15T02:39:52.322Z,96423.36
2023-11-15T02:42:20.275Z,96427.05
2023-11-15T02:44:48.328Z,96420.50
2023-11-15T02:47:16.365Z,96426.42
2023-11-15T02:49:46.468Z,96434.35
2023-11-15T02:52:14.425Z,96435.98
2023-11-15T02:54:42.653Z,96437.27
2023-11-15T02:57:12.933Z,96425.91
2023-11-15T02:59:41.160Z,96424.89
2023-11-15T03:02:09.375Z,96417.69
2023-11-15T03:04:37.351Z,96418.06
2023-11-15T03:07:05.276Z,96417.20
2023-11-15T03:09:33.168Z,96407.44
2023-11-15T03:12:01.248Z,96394.02
2023-11-15T03:14:29.336Z,96390.01
2023-11-15T03:17:07.437Z,96389.33
2023-11-15T03:19:35.433Z,96402.73
2023-11-15T03:22:03.304Z,96416.48
2023-11-15T03:24:31.326Z,96422.14
2023-11-15T03:26:59.440Z,96443.05
2023-11-15T03:29:27.552Z,96451.76
2023-11-15T03:31:55.504Z,96450.02
2023-11-15T03:34:23.478Z,96448.19
2023-11-15T03:36:51.671Z,96445.02
2023-11-15T03:39:20.799Z,96447.66
2023-11-15T03:41:48.683Z,96444.73
2023-11-15T03:44:16.919Z,96439.61
2023-11-15T03:46:45.017Z,96438.28
2023-11-15T03:49:12.934Z,96444.80
2023-11-15T03:51:40.973Z,96454.58
2023-11-15T03:54:09.948Z,96451.02
2023-11-15T03:56:37.908Z,96456.92
2023-11-15T03:59:06.975Z,96451.74
2023-11-15T04:01:37.695Z,96436.88
2023-11-15T04:04:08.430Z,96433.06
2023-11-15T04:06:36.434Z,96432.66
2023-11-15T04:09:06.726Z,96434.33
2023-11-15T04:11:40.610Z,96433.42
2023-11-15T04:14:08.808Z,96415.82
2023-11-15T04:16:36.719Z,96398.30
2023-11-15T04:19:05.094Z,96385.42
2023-11-15T04:21:33.300Z,96363.19
2023-11-15T04:24:01.601Z,96347.06
2023-11-15T04:26:30.110Z,96353.85
2023-11-15T04:29:00.683Z,96364.98
2023-11-15T04:31:28.894Z,96367.11
2023-11-15T04:33:56.955Z,96362.67
2023-11-15T04:36:25.407Z,96356.46
2023-11-15T04:38:53.679Z,96363.95
2023-11-15T04:41:21.983Z,96375.94
2023-11-15T04:43:51.991Z,96384.01
2023-11-15T04:46:20.672Z,96382.83
2023-11-15T04:48:51.536Z,96375.15
2023-11-15T04:51:20.456Z,96364.30
2023-11-15T04:53:51.012Z,96360.68
2023-11-15T04:56:20.527Z,96369.37
2023-11-15T04:58:48.673Z,96366.00
2023-11-15T05:01:18.244Z,96359.41
2023-11-15T05:03:49.326Z,96371.41
2023-11-15T05:06:17.741Z,96377.87
2023-11-15T05:08:45.947Z,96369.86
2023-11-15T05:11:14.316Z,96360.35
2023-11-15T05:13:42.596Z,96350.10
2023-11-15T05:16:11.152Z,96357.12
2023-11-15T05:18:39.489Z,96357.80
2023-11-15T05:21:08.062Z,96365.86
2023-11-15T05:23:36.116Z,96373.64
2023-11-15T05:26:04.642Z,96372.88
2023-11-15T05:28:32.828Z,96358.77
2023-11-15T05:31:01.382Z,96352.25
2023-11-15T05:33:29.680Z,96356.40
2023-11-15T05:35:58.148Z,96347.22
2023-11-15T05:38:26.323Z,96348.15
2023-11-15T05:40:54.665Z,96354.85
2023-11-15T05:43:22.621Z,96371.18
2023-11-15T05:45:50.643Z,96385.53
2023-11-15T05:48:19.245Z,96389.68
2023-11-15T05:50:47.401Z,96389.35
2023-11-15T05:53:17.387Z,96389.56
2023-11-15T05:55:45.367Z,96386.34
2023-11-15T05:58:13.601Z,96381.90
2023-11-15T06:00:41.468Z,96381.08
2023-11-15T06:03:09.676Z,96386.20
2023-11-15T06:05:37.805Z,96386.64
2023-11-15T06:08:05.844Z,96378.34
2023-11-15T06:10:33.988Z,96371.02
2023-11-15T06:13:01.975Z,96372.35
2023-11-15T06:15:30.229Z,96367.52
2023-11-15T06:17:58.379Z,96354.70
2023-11-15T06:20:26.950Z,96348.55
2023-11-15T06:22:55.022Z,96339.80
2023-11-15T06:25:23.204Z,96336.95
2023-11-15T06:27:51.505Z,96346.71
2023-11-15T06:30:20.302Z,96352.79
2023-11-15T06:32:48.620Z,96358.48
2023-11-15T06:35:20.488Z,96363.39
2023-11-15T06:37:50.027Z,96372.70
2023-11-15T06:40:19.787Z,96372.02
2023-11-15T06:42:47.887Z,96359.07
2023-11-15T06:45:18.692Z,96362.48
2023-11-15T06:47:47.298Z,96356.85
2023-11-15T06:50:17.511Z,96346.44
2023-11-15T06:52:46.885Z,96347.32
2023-11-15T06:55:16.659Z,96373.41
2023-11-15T06:57:45.696Z,96395.16
2023-11-15T07:00:14.462Z,96398.95
2023-11-15T07:02:43.036Z,96384.30
2023-11-15T07:05:12.122Z,96377.61
2023-11-15T07:07:41.451Z,96384.80
2023-11-15T07:10:09.937Z,96380.15
2023-11-15T07:12:39.553Z,96375.19
2023-11-15T07:15:16.610Z,96372.48
2023-11-15T07:17:44.804Z,96379.66
2023-11-15T07:20:14.592Z,96372.10
2023-11-15T07:22:42.553Z,96362.17
2023-11-15T07:25:14.092Z,96353.20
2023-11-15T07:27:42.354Z,96365.22
2023-11-15T07:30:13.508Z,96382.71
2023-11-15T07:32:42.748Z,96387.70
2023-11-15T07:35:10.768Z,96406.52
2023-11-15T07:37:39.546Z,96414.02
2023-11-15T07:40:13.482Z,96416.04
2023-11-15T07:42:42.096Z,96405.02
2023-11-15T07:45:10.765Z,96410.19
2023-11-15T07:47:39.967Z,96414.05
2023-11-15T07:50:10.267Z,96415.59
2023-11-15T07:52:38.409Z,96429.46
2023-11-15T07:55:07.077Z,96424.54
2023-11-15T07:57:35.072Z,96404.10
2023-11-15T08:00:05.503Z,96390.86
2023-11-15T08:02:33.803Z,96395.14
2023-11-15T08:05:02.126Z,96394.08
2023-11-15T08:07:30.346Z,96391.13
2023-11-15T08:09:58.497Z,96394.15
2023-11-15T08:12:27.404Z,96407.11
2023-11-15T08:14:55.587Z,96408.01
2023-11-15T08:17:23.551Z,96408.95
2023-11-15T08:19:51.785Z,96416.79
2023-11-15T08:22:19.863Z,96416.62
2023-11-15T08:24:48.298Z,96410.64
2023-11-15T08:27:16.449Z,96416.77
2023-11-15T08:29:44.399Z,96413.15
2023-11-15T08:32:13.654Z,96407.83
2023-11-15T08:34:42.673Z,96409.59
2023-11-15T08:37:13.985Z,96403.41
2023-11-15T08:39:43.640Z,96402.00
2023-11-15T08:42:12.074Z,96402.19
2023-11-15T08:44:44.808Z,96394.79
2023-11-15T08:47:12.970Z,96393.30
2023-11-15T08:49:40.881Z,96393.77
2023-11-15T08:52:10.559Z,96391.94
2023-11-15T08:54:38.615Z,96391.84
2023-11-15T08:57:06.835Z,96395.25
2023-11-15T08:59:37.230Z,96396.06
2023-11-15T09:02:06.842Z,96392.91
2023-11-15T09:04:35.445Z,96390.82
2023-11-15T09:07:03.740Z,96390.95
2023-11-15T09:09:39.247Z,96373.09
2023-11-15T09:12:09.596Z,96358.14
2023-11-15T09:14:37.923Z,96370.01
2023-11-15T09:17:13.686Z,96376.95
2023-11-15T09:19:41.906Z,96378.60
2023-11-15T09:22:11.801Z,96374.33
2023-11-15T09:24:39.997Z,96377.02
2023-11-15T09:27:08.140Z,96376.73
2023-11-15T09:29:36.232Z,96376.42
2023-11-15T09:32:04.602Z,96380.05
2023-11-15T09:34:32.756Z,96373.46
2023-11-15T09:37:00.968Z,96370.48
2023-11-15T09:39:30.571Z,96368.50
2023-11-15T09:41:59.115Z,96365.60
2023-11-15T09:44:27.526Z,96369.67
2023-11-15T09:46:59.227Z,96368.49
2023-11-15T09:49:28.167Z,96363.17
2023-11-15T09:51:58.235Z,96355.57
2023-11-15T09:54:27.426Z,96357.54
2023-11-15T09:56:56.284Z,96350.08
2023-11-15T09:59:24.570Z,96347.73
2023-11-15T10:01:52.672Z,96341.67
2023-11-15T10:04:25.351Z,96340.51
2023-11-15T10:06:59.804Z,96339.45
2023-11-15T10:09:42.250Z,96338.00
2023-11-15T10:12:11.838Z,96334.87
2023-11-15T10:14:54.373Z,96329.88
2023-11-15T10:17:55.425Z,96322.44
2023-11-15T10:20:27.126Z,96323.65
2023-11-15T10:22:57.356Z,96323.59
2023-11-15T10:25:28.314Z,96326.11
2023-11-15T10:28:02.570Z,96324.10
2023-11-15T10:30:30.849Z,96317.08
2023-11-15T10:33:14.592Z,96310.82
2023-11-15T10:35:44.626Z,96311.27
2023-11-15T10:38:24.438Z,96305.14
2023-11-15T10:40:53.640Z,96303.48
2023-11-15T10:43:22.036Z,96304.38
2023-11-15T10:45:53.413Z,96305.09
2023-11-15T10:48:24.661Z,96304.73
2023-11-15T10:50:59.473Z,96306.89
2023-11-15T10:53:29.371Z,96310.64
2023-11-15T10:55:58.871Z,96316.66
2023-11-15T10:58:27.881Z,96313.75
2023-11-15T11:00:56.944Z,96313.54
2023-11-15T11:03:26.610Z,96319.30
2023-11-15T11:06:04.126Z,96325.63
2023-11-15T11:08:41.734Z,96326.41
2023-11-15T11:11:10.163Z,96332.05
2023-11-15T11:13:42.135Z,96334.50
2023-11-15T11:16:35.798Z,96336.05
2023-11-15T11:19:18.430Z,96334.65
2023-11-15T11:22:05.895Z,96331.42
2023-11-15T11:24:39.817Z,96333.27
2023-11-15T11:27:15.534Z,96332.78
2023-11-15T11:29:52.710Z,96333.36
2023-11-15T11:32:28.105Z,96326.42
2023-11-15T11:35:02.967Z,96330.53
2023-11-15T11:37:53.872Z,96325.66
2023-11-15T11:40:27.114Z,96320.98
2023-11-15T11:43:11.570Z,96320.75
2023-11-15T11:45:42.296Z,96322.91
2023-11-15T11:48:27.403Z,96327.48
2023-11-15T11:50:57.212Z,96330.09
2023-11-15T11:53:25.708Z,96333.14
2023-11-15T11:55:56.002Z,96335.48
2023-11-15T11:58:29.391Z,96335.84
2023-11-15T12:01:02.577Z,96339.84
2023-11-15T12:03:32.181Z,96339.77
2023-11-15T12:06:09.011Z,96341.78
2023-11-15T12:08:39.977Z,96333.60
2023-11-15T12:11:09.538Z,96331.88
2023-11-15T12:13:49.369Z,96333.47
2023-11-15T12:16:19.645Z,96333.21
2023-11-15T12:19:06.409Z,96336.15
2023-11-15T12:21:39.536Z,96337.52
2023-11-15T12:24:08.072Z,96344.35
2023-11-15T12:26:49.032Z,96347.81
2023-11-15T12:29:21.333Z,96350.36
2023-11-15T12:31:52.024Z,96353.77
2023-11-15T12:34:21.856Z,96360.71
2023-11-15T12:36:51.520Z,96362.80
2023-11-15T12:39:23.295Z,96361.40
2023-11-15T12:41:59.512Z,96364.17
2023-11-15T12:44:27.670Z,96365.77
2023-11-15T12:46:59.605Z,96360.36
2023-11-15T12:49:28.085Z,96360.45
2023-11-15T12:51:56.064Z,96357.64
2023-11-15T12:54:24.212Z,96358.96
2023-11-15T12:57:17.733Z,96360.02
2023-11-15T12:59:51.006Z,96364.39
2023-11-15T13:02:29.161Z,96371.22
2023-11-15T13:04:58.519Z,96371.77
2023-11-15T13:07:28.108Z,96371.28
2023-11-15T13:09:56.510Z,96371.39
2023-11-15T13:12:26.184Z,96373.40
2023-11-15T13:14:56.045Z,96374.13
2023-11-15T13:17:28.241Z,96376.59
2023-11-15T13:20:01.529Z,96376.23
2023-11-15T13:22:31.831Z,96383.70
2023-11-15T13:24:59.994Z,96396.70
2023-11-15T13:27:27.884Z,96402.50
2023-11-15T13:29:56.001Z,96401.63
2023-11-15T13:32:24.936Z,96406.17
2023-11-15T13:34:54.106Z,96406.80
2023-11-15T13:37:22.154Z,96401.11
2023-11-15T13:39:50.220Z,96397.95
2023-11-15T13:42:18.358Z,96395.27
2023-11-15T13:44:46.396Z,96397.38
2023-11-15T13:47:15.175Z,96405.92
2023-11-15T13:49:46.497Z,96405.80
2023-11-15T13:52:15.239Z,96400.85
2023-11-15T13:54:47.156Z,96404.17
2023-11-15T13:57:18.929Z,96402.82
2023-11-15T13:59:47.357Z,96406.73
2023-11-15T14:02:15.734Z,96402.64
2023-11-15T14:04:44.245Z,96403.84
2023-11-15T14:07:12.256Z,96406.60
2023-11-15T14:09:41.043Z,96407.69
2023-11-15T14:12:10.074Z,96409.99
2023-11-15T14:14:44.248Z,96410.27
2023-11-15T14:17:12.622Z,96410.58
2023-11-15T14:19:41.355Z,96414.98
2023-11-15T14:22:13.269Z,96419.25
2023-11-15T14:24:41.641Z,96431.34
2023-11-15T14:27:09.830Z,96440.22
2023-11-15T14:29:37.864Z,96447.81
2023-11-15T14:32:08.900Z,96455.64
2023-11-15T14:34:37.179Z,96454.66
2023-11-15T14:37:05.133Z,96458.98
2023-11-15T14:39:33.268Z,96461.70
2023-11-15T14:42:05.710Z,96463.56
2023-11-15T14:44:34.832Z,96468.17
2023-11-15T14:47:02.976Z,96475.60
2023-11-15T14:49:31.115Z,96484.06
2023-11-15T14:52:11.799Z,96489.58
2023-11-15T14:54:47.078Z,96491.35
2023-11-15T14:57:15.722Z,96489.36
2023-11-15T14:59:44.980Z,96489.34
2023-11-15T15:02:14.598Z,96487.08
2023-11-15T15:04:45.632Z,96491.02
2023-11-15T15:07:16.021Z,96498.31
2023-11-15T15:09:45.407Z,96505.55
2023-11-15T15:12:14.258Z,96506.00
2023-11-15T15:14:43.003Z,96507.61
2023-11-15T15:17:23.561Z,96512.65
2023-11-15T15:19:54.809Z,96517.66
2023-11-15T15:22:23.540Z,96522.48
2023-11-15T15:24:51.728Z,96525.80
2023-11-15T15:27:20.063Z,96528.48
2023-11-15T15:29:50.452Z,96531.61
2023-11-15T15:32:19.097Z,96532.91
2023-11-15T15:34:47.539Z,96532.91
2023-11-15T15:37:16.634Z,96527.30
2023-11-15T15:39:44.761Z,96526.02
2023-11-15T15:42:12.982Z,96523.27
2023-11-15T15:44:41.293Z,96522.00
2023-11-15T15:47:09.634Z,96522.43
2023-11-15T15:49:42.829Z,96516.78
2023-11-15T15:52:14.747Z,96524.14
2023-11-15T15:54:43.917Z,96530.67
2023-11-15T15:57:12.025Z,96535.12
2023-11-15T15:59:43.507Z,96537.17
2023-11-15T16:02:12.012Z,96538.02
2023-11-15T16:04:42.821Z,96539.88
2023-11-15T16:07:11.588Z,96539.64
2023-11-15T16:09:42.831Z,96540.80
2023-11-15T16:12:11.670Z,96541.67
2023-11-15T16:14:39.851Z,96541.86
2023-11-15T16:17:08.903Z,96547.30
2023-11-15T16:19:37.175Z,96554.06
2023-11-15T16:22:05.467Z,96563.75
2023-11-15T16:24:33.441Z,96566.30
2023-11-15T16:27:04.845Z,96570.02
2023-11-15T16:29:33.660Z,96570.89
2023-11-15T16:32:02.044Z,96571.64
2023-11-15T16:34:30.228Z,96570.19
2023-11-15T16:36:59.789Z,96573.13
2023-11-15T16:39:28.077Z,96574.89
2023-11-15T16:41:56.315Z,96578.11
2023-11-15T16:44:26.864Z,96585.75
2023-11-15T16:46:54.915Z,96585.24
2023-11-15T16:49:23.574Z,96588.36
2023-11-15T16:51:51.733Z,96589.00
2023-11-15T16:54:20.380Z,96595.23
2023-11-15T16:56:48.464Z,96597.86
2023-11-15T16:59:16.447Z,96604.29
2023-11-15T17:01:44.760Z,96607.63
2023-11-15T17:04:12.885Z,96615.54
2023-11-15T17:06:41.267Z,96616.27
2023-11-15T17:09:09.454Z,96619.64
2023-11-15T17:11:37.628Z,96620.27
2023-11-15T17:14:07.424Z,96623.29
2023-11-15T17:16:35.596Z,96624.92
2023-11-15T17:19:03.757Z,96625.38
2023-11-15T17:21:32.001Z,96628.23
2023-11-15T17:24:00.231Z,96628.67
2023-11-15T17:26:32.337Z,96632.39
2023-11-15T17:29:00.654Z,96640.04
2023-11-15T17:31:29.651Z,96643.92
2023-11-15T17:33:57.925Z,96651.85
2023-11-15T17:36:29.414Z,96658.16
2023-11-15T17:38:58.021Z,96663.04
2023-11-15T17:41:27.289Z,96669.65
2023-11-15T17:43:55.361Z,96679.83
2023-11-15T17:46:26.634Z,96680.15
2023-11-15T17:48:56.574Z,96687.71
2023-11-15T17:51:24.537Z,96692.23
2023-11-15T17:53:54.363Z,96690.60
2023-11-15T17:56:22.673Z,96691.11
2023-11-15T17:58:52.361Z,96692.42
2023-11-15T18:01:21.846Z,96690.05
2023-11-15T18:03:50.238Z,96688.66
2023-11-15T18:06:23.613Z,96690.86
2023-11-15T18:08:53.002Z,96693.09
2023-11-15T18:11:21.050Z,96691.30
2023-11-15T18:13:49.064Z,96693.67
2023-11-15T18:16:17.258Z,96695.79
2023-11-15T18:18:45.383Z,96698.02
2023-11-15T18:21:13.523Z,96699.13
2023-11-15T18:23:42.000Z,96696.04
2023-11-15T18:26:09.886Z,96699.95
2023-11-15T18:28:39.295Z,96708.67
2023-11-15T18:31:08.247Z,96716.17
2023-11-15T18:33:37.444Z,96718.02
2023-11-15T18:36:08.917Z,96725.31
2023-11-15T18:38:37.945Z,96729.19
2023-11-15T18:41:09.247Z,96733.96
2023-11-15T18:43:37.894Z,96735.92
2023-11-15T18:46:06.465Z,96739.46
2023-11-15T18:48:36.147Z,96745.50
2023-11-15T18:51:04.390Z,96752.05
2023-11-15T18:53:32.561Z,96758.00
2023-11-15T18:56:01.423Z,96761.52
2023-11-15T18:58:29.622Z,96770.93
2023-11-15T19:00:58.206Z,96789.55
2023-11-15T19:03:26.454Z,96803.44
2023-11-15T19:05:57.217Z,96809.69
2023-11-15T19:08:25.347Z,96817.80
2023-11-15T19:10:57.845Z,96823.98
2023-11-15T19:13:28.664Z,96820.06
2023-11-15T19:15:59.239Z,96826.42
2023-11-15T19:18:28.031Z,96825.55
2023-11-15T19:20:58.911Z,96828.38
2023-11-15T19:23:27.212Z,96838.85
2023-11-15T19:25:55.588Z,96837.15
2023-11-15T19:28:23.540Z,96833.83
2023-11-15T19:30:51.578Z,96842.02
2023-11-15T19:33:22.147Z,96844.80
2023-11-15T19:35:51.209Z,96849.28
2023-11-15T19:38:20.229Z,96853.27
2023-11-15T19:40:48.476Z,96856.68
2023-11-15T19:43:16.531Z,96863.02
2023-11-15T19:45:45.573Z,96869.64
2023-11-15T19:48:13.872Z,96870.85
2023-11-15T19:50:41.964Z,96874.23
2023-11-15T19:53:10.775Z,96877.39
2023-11-15T19:55:39.600Z,96879.61
2023-11-15T19:58:07.927Z,96878.66
2023-11-15T20:00:38.871Z,96880.14
2023-11-15T20:03:08.699Z,96880.02
2023-11-15T20:05:40.021Z,96876.33
2023-11-15T20:08:08.307Z,96871.33
2023-11-15T20:10:37.318Z,96870.35
2023-11-15T20:13:06.621Z,96871.63
2023-11-15T20:15:35.117Z,96870.73
2023-11-15T20:18:03.692Z,96869.30
2023-11-15T20:20:31.759Z,96872.91
2023-11-15T20:23:01.614Z,96867.89
2023-11-15T20:25:29.811Z,96868.20
2023-11-15T20:27:57.897Z,96869.61
2023-11-15T20:30:27.140Z,96866.13
2023-11-15T20:32:56.729Z,96870.45
2023-11-15T20:35:25.209Z,96873.89
2023-11-15T20:37:53.385Z,96875.69
2023-11-15T20:40:23.197Z,96877.38
2023-11-15T20:42:51.700Z,96879.71
2023-11-15T20:45:20.002Z,96880.42
2023-11-15T20:47:48.347Z,96879.90
2023-11-15T20:50:16.625Z,96883.08
2023-11-15T20:52:44.987Z,96883.90
2023-11-15T20:55:13.152Z,96890.52
2023-11-15T20:57:41.181Z,96894.52
2023-11-15T21:00:23.496Z,96893.84
2023-11-15T21:02:52.919Z,96894.21
2023-11-15T21:05:21.324Z,96894.75
2023-11-15T21:07:49.323Z,96899.23
2023-11-15T21:10:17.714Z,96903.60
2023-11-15T21:12:47.179Z,96911.40
2023-11-15T21:15:16.873Z,96919.12
2023-11-15T21:17:45.829Z,96923.76
2023-11-15T21:20:14.831Z,96918.05
2023-11-15T21:22:44.107Z,96921.17
2023-11-15T21:25:15.152Z,96924.04
2023-11-15T21:27:44.008Z,96929.77
2023-11-15T21:30:13.769Z,96927.25
2023-11-15T21:32:42.956Z,96925.09
2023-11-15T21:35:12.582Z,96927.92
2023-11-15T21:37:45.706Z,96925.82
2023-11-15T21:40:19.524Z,96921.30
2023-11-15T21:42:49.569Z,96918.63
2023-11-15T21:45:18.446Z,96926.27
2023-11-15T21:47:47.936Z,96930.77
2023-11-15T21:50:20.006Z,96932.88
2023-11-15T21:52:51.970Z,96934.41
2023-11-15T21:55:20.432Z,96935.04
2023-11-15T21:57:49.048Z,96935.50
2023-11-15T22:00:21.790Z,96942.73
2023-11-15T22:02:50.306Z,96941.45
2023-11-15T22:05:18.753Z,96941.23
2023-11-15T22:07:47.876Z,96938.25
2023-11-15T22:10:16.328Z,96932.23
2023-11-15T22:12:45.885Z,96937.31
2023-11-15T22:15:14.375Z,96940.20
2023-11-15T22:17:42.507Z,96944.04
2023-11-15T22:20:12.083Z,96947.20
2023-11-15T22:22:40.556Z,96951.86
2023-11-15T22:25:09.162Z,96955.98
2023-11-15T22:27:37.405Z,96954.54
2023-11-15T22:30:08.224Z,96958.44
2023-11-15T22:32:36.421Z,96963.27
2023-11-15T22:35:05.921Z,96962.82
2023-11-15T22:37:34.381Z,96966.08
2023-11-15T22:40:02.634Z,96967.37
2023-11-15T22:42:30.749Z,96966.44
2023-11-15T22:44:58.792Z,96967.82
2023-11-15T22:47:26.793Z,96970.21
2023-11-15T22:49:54.850Z,96961.75
2023-11-15T22:52:22.868Z,96962.77
2023-11-15T22:54:51.847Z,96963.55
2023-11-15T22:57:19.909Z,96960.13
2023-11-15T22:59:51.168Z,96957.92
2023-11-15T23:02:20.447Z,96959.01
2023-11-15T23:04:48.781Z,96960.67
2023-11-15T23:07:21.867Z,96970.31
2023-11-15T23:09:50.894Z,96977.61
2023-11-15T23:12:18.932Z,96981.17
2023-11-15T23:14:47.073Z,96985.11
2023-11-15T23:17:15.157Z,96990.84
2023-11-15T23:19:43.883Z,96993.09
2023-11-15T23:22:12.150Z,96992.79
2023-11-15T23:24:41.044Z,96994.30
2023-11-15T23:27:11.165Z,96993.39
2023-11-15T23:29:39.352Z,96997.35
2023-11-15T23:32:08.699Z,97001.08
2023-11-15T23:34:37.622Z,97003.11
2023-11-15T23:37:05.991Z,97006.66
2023-11-15T23:39:34.637Z,97011.46
2023-11-15T23:42:02.809Z,97007.69
2023-11-15T23:44:33.118Z,97007.63
2023-11-15T23:47:01.303Z,97013.61
2023-11-15T23:49:30.483Z,97016.36
2023-11-15T23:51:58.598Z,97021.19
2023-11-15T23:54:26.697Z,97023.29
2023-11-15T23:56:56.437Z,97021.48
2023-11-15T23:59:25.031Z,97019.96
